Flight Track Log - Related Links

Times and Time Zones

All times are in EDT time to prevent confusion due to time zone crossing. See the UCA4838 flight status page for this flight to view local times or setup timezone preferences in your user account.

Time Position Orientation Groundspeed Altitude Reporting Facility
EDT Latitude Longitude Course Direction KTS MPH feet Rate Location/Type
Wed 06:07:28 AM 43.1014 -77.6942 157° South 127 146 1,200  Level Cleveland Center
Wed 06:08:34 AM 43.0614 -77.6706 157° South 170 196 2,300 1,073 Climbing Cleveland Center
Wed 06:09:31 AM 43.0431 -77.6117 113° Southeast 190 219 3,400 1,231 Climbing Cleveland Center
Wed 06:10:31 AM 43.0225 -77.5417 112° Southeast 204 235 4,700 1,250 Climbing Cleveland Center
Wed 06:11:31 AM 42.9978 -77.4719 116° Southeast 211 243 5,900 1,050 Climbing Cleveland Center
Wed 06:12:31 AM 42.9708 -77.3994 117° Southeast 211 243 6,800 900 Climbing Cleveland Center
Wed 06:13:31 AM 42.9394 -77.3189 118° Southeast 222 255 7,700 818 Climbing Cleveland Center
Wed 06:15:05 AM 42.9006 -77.1994 114° Southeast 252 290 8,900 774 Climbing New Center
Wed 06:16:06 AM 42.8658 -77.1111 118° Southeast 252 290 9,700 787 Climbing New Center
Wed 06:17:07 AM 42.8353 -77.0178 114° Southeast 252 290 10,500 864 Climbing New Center
Wed 06:18:04 AM 42.7983 -76.9294 120° Southeast 257 296 11,400 821 Climbing New Center
Wed 06:19:04 AM 42.7572 -76.8408 122° Southeast 269 310 12,100 639 Climbing New Center
Wed 06:20:06 AM 42.7158 -76.7522 122° Southeast 275 316 12,700 439 Climbing New Center
Wed 06:21:07 AM 42.6747 -76.6553 120° Southeast 281 323 13,000 151 Climbing New Center
Wed 06:22:05 AM 42.6297 -76.5583 122° Southeast 292 336 13,000  Level New Center
Wed 06:23:05 AM 42.5847 -76.4531 120° Southeast 307 353 13,000  Level New Center
Wed 06:23:27 AM 42.5567 -76.3950 123° Southeast 328 377 13,000  Level Boston Center
Wed 06:24:27 AM 42.5181 -76.3081 121° Southeast 316 364 13,000  Level Boston Center
Wed 06:25:27 AM 42.4772 -76.2183 122° Southeast 316 364 13,000  Level Boston Center
Wed 06:26:27 AM 42.4344 -76.1200 120° Southeast 310 357 13,000  Level Boston Center
Wed 06:27:27 AM 42.3858 -76.0158 122° Southeast 321 369 13,000  Level Boston Center
Wed 06:28:27 AM 42.3389 -75.9122 121° Southeast 314 361 13,000  Level Boston Center
Wed 06:29:27 AM 42.2919 -75.8083 121° Southeast 319 367 13,000  Level Boston Center
Wed 06:30:27 AM 42.2450 -75.7106 123° Southeast 319 367 13,000  Level Boston Center
Wed 06:31:27 AM 42.1997 -75.6100 121° Southeast 319 367 13,000  Level Boston Center
Wed 06:32:27 AM 42.1525 -75.5067 122° Southeast 319 367 13,000  Level Boston Center
Wed 06:33:27 AM 42.1053 -75.4064 122° Southeast 319 367 13,000 50 Level Boston Center
Wed 06:34:27 AM 42.0578 -75.3036 122° Southeast 314 361 13,100 50 Climbing Boston Center
Wed 06:35:27 AM 42.0189 -75.1983 116° Southeast 314 361 13,100  Level Boston Center
Wed 06:36:27 AM 41.9756 -75.0847 117° Southeast 319 367 13,100  Level Boston Center
Wed 06:37:27 AM 41.9383 -74.9856 117° Southeast 319 367 13,100 -250 Level Boston Center
Wed 06:38:27 AM 41.8758 -74.8908 132° Southeast 313 360 12,600 -1,000 Descending Boston Center
Wed 06:39:27 AM 41.7975 -74.8461 157° South 318 366 11,100 -1,600 Descending Boston Center
Wed 06:40:27 AM 41.7072 -74.7842 153° Southeast 329 379 9,400 -1,450 Descending Boston Center
Wed 06:41:27 AM 41.6350 -74.7372 154° Southeast 329 379 8,200 -1,200 Descending Boston Center
Wed 06:42:27 AM 41.5439 -74.7061 166° South 312 359 7,000 -1,050 Descending Boston Center
Wed 06:43:27 AM 41.4736 -74.6869 168° South 302 348 6,100 -377 Descending Boston Center
Wed 06:45:06 AM 41.3333 -74.6500 169° South 293 337 6,000  Descending New TRACON
Wed 06:46:01 AM 41.2667 -74.6500 180° South 278 320 6,100  Climbing New TRACON
Wed 06:47:01 AM 41.1833 -74.6333 171° South 295 339 6,000 -500 Descending New TRACON
Wed 06:48:01 AM 41.1167 -74.5833 151° Southeast 295 339 5,100 -450 Descending New TRACON
Wed 06:49:01 AM 41.0333 -74.5333 156° South 286 329 5,100  Level New TRACON
Wed 06:49:55 AM 40.9833 -74.4833 143° Southeast 282 325 5,100  Level New TRACON
Wed 06:50:55 AM 40.9000 -74.4500 163° South 289 333 5,100 -53 Level New TRACON
Wed 06:51:49 AM 40.8500 -74.4833 207° Southwest 248 285 5,000  Descending New TRACON
Wed 06:52:49 AM 40.7833 -74.5167 201° Southwest 266 306 5,100 50 Climbing New TRACON
Wed 06:53:50 AM 40.7167 -74.5000 169° South 278 320 5,100 -52 Level New TRACON
Wed 06:54:44 AM 40.6500 -74.4833 169° South 281 323 5,000  Descending New TRACON
Wed 06:55:38 AM 40.5833 -74.4833 180° South 279 321 5,100 -474 Climbing New TRACON
Wed 06:56:38 AM 40.5000 -74.4667 171° South 290 334 4,100 -1,000 Descending New TRACON
Wed 06:57:38 AM 40.4167 -74.4500 171° South 286 329 3,100 -500 Descending New TRACON
Wed 06:58:38 AM 40.4000 -74.3667 105° East 257 296 3,100 -50 Level New TRACON
Wed 06:59:38 AM 40.4500 -74.3167 37° Northeast 211 243 3,000 -50 Descending New TRACON
Wed 07:00:38 AM 40.5000 -74.2833 27° Northeast 202 232 3,000 -50 Level New TRACON
Wed 07:01:38 AM 40.5500 -74.2500 27° Northeast 177 204 2,900 -500 Descending New TRACON
Wed 07:02:38 AM 40.5833 -74.2333 21° North 162 186 2,000 -900 Descending New TRACON

Login

Don't have an account? Register now (free) for customized features, flight alerts, and more!